Armistead, Louisiana
Current Conditions -  °F | °C
As of 4:35 PM on Friday 28 Nov 2014 (Local Time) from KIER Reporting Station
Clear Clear  
Wind Chill: 63°   Ceiling: Unl
Heat Index: 63°   Visibility: 10mi
Dew Point: 46°   Wind: 7mph
Humidity: 53%   Direction: 180°S
Pressure: 30.19"   Gusts: NA
Location:  32.1001°N, 93.2912°W
Report Text: KIER 282235Z AUTO 18006KT 10SM CLR 17/08 A3019 RMK AO2 T01730076
Loading
Personal Weather Stations






























Interactive Weather Map New forecast layout! Learn more

10-Day Weather Forecast

Advertisements
Track Severe Weather on mobile